Time;durP1;ratioP1;P1;durP2;ratioP2;P2;SDS_P1;SDS_P2;PMS_P1;PMS_P2;Temp;Humidity;BMP_temperature;BMP_pressure;BME280_temperature;BME280_humidity;BME280_pressure;Samples;Min_cycle;Max_cycle;Signal;HPM_P1;HPM_P2
2021/07/15 00:01:16;;;;;;;5.28;1.73;;;17.90;70.40;;;;;;5044663;28;20026;-70
2021/07/15 00:03:42;;;;;;;3.40;1.38;;;17.90;70.30;;;;;;5043898;28;20071;-72
2021/07/15 00:06:07;;;;;;;1.95;1.25;;;17.90;70.40;;;;;;5027222;28;20032;-72
2021/07/15 00:08:33;;;;;;;4.13;1.60;;;17.90;70.30;;;;;;5044375;28;20044;-73
2021/07/15 00:11:01;;;;;;;2.25;1.30;;;17.90;70.20;;;;;;5027004;28;20101;-72
2021/07/15 00:13:27;;;;;;;4.10;1.52;;;17.80;70.20;;;;;;5026520;28;20037;-72
2021/07/15 00:15:55;;;;;;;2.83;1.55;;;17.80;70.20;;;;;;5026730;28;20033;-72
2021/07/15 00:18:24;;;;;;;2.95;1.58;;;17.80;70.50;;;;;;5044455;28;20048;-73
2021/07/15 00:20:49;;;;;;;1.95;1.40;;;17.80;70.50;;;;;;5027148;28;20049;-73
2021/07/15 00:23:15;;;;;;;2.15;1.25;;;17.80;70.40;;;;;;5044402;28;20037;-73
2021/07/15 00:25:41;;;;;;;4.50;1.23;;;17.80;70.30;;;;;;5026440;28;20040;-72
2021/07/15 00:28:07;;;;;;;1.50;1.20;;;17.80;70.50;;;;;;5026337;28;20152;-72
2021/07/15 00:30:32;;;;;;;3.58;1.17;;;17.70;70.40;;;;;;5026564;28;20041;-71
2021/07/15 00:32:58;;;;;;;1.27;1.00;;;17.70;70.70;;;;;;5043206;28;20052;-72
2021/07/15 00:35:24;;;;;;;3.20;1.13;;;17.70;70.80;;;;;;5026721;28;20332;-72
2021/07/15 00:37:49;;;;;;;3.10;1.33;;;17.70;70.90;;;;;;5026017;28;20057;-73
2021/07/15 00:40:16;;;;;;;3.22;1.13;;;17.70;70.60;;;;;;5044162;28;20247;-72
2021/07/15 00:42:41;;;;;;;2.22;1.20;;;17.60;70.70;;;;;;5026190;28;20329;-73
2021/07/15 00:45:08;;;;;;;1.15;1.05;;;17.60;70.80;;;;;;5010596;28;20029;-72
2021/07/15 00:47:33;;;;;;;2.65;1.02;;;17.70;70.70;;;;;;5026678;28;20064;-72
2021/07/15 00:49:59;;;;;;;4.20;1.10;;;17.60;71.40;;;;;;5026185;28;20037;-72
2021/07/15 00:52:24;;;;;;;2.58;1.00;;;17.50;71.70;;;;;;5043528;28;20089;-72
2021/07/15 00:54:51;;;;;;;1.38;0.85;;;17.50;72.30;;;;;;5026343;28;20033;-72
2021/07/15 00:57:16;;;;;;;1.73;1.20;;;17.60;72.60;;;;;;5026907;28;20064;-72
2021/07/15 00:59:42;;;;;;;1.58;1.00;;;17.60;72.00;;;;;;5043905;28;20041;-72
2021/07/15 01:02:07;;;;;;;1.27;0.98;;;17.60;71.70;;;;;;5043926;28;20036;-72
2021/07/15 01:04:33;;;;;;;3.00;1.25;;;17.60;71.50;;;;;;5043327;28;20040;-72
2021/07/15 01:06:59;;;;;;;3.55;1.52;;;17.70;71.20;;;;;;5043460;28;20029;-72
2021/07/15 01:09:24;;;;;;;1.63;1.10;;;17.60;71.40;;;;;;5043652;28;20060;-72
2021/07/15 01:12:15;;;;;;;2.80;0.93;;;17.50;71.70;;;;;;5042978;28;20029;-72
2021/07/15 01:15:01;;;;;;;1.33;0.80;;;17.60;71.80;;;;;;5026873;28;20037;-72
2021/07/15 01:17:29;;;;;;;2.03;0.98;;;17.60;71.70;;;;;;5030667;28;20044;-72
2021/07/15 01:20:21;;;;;;;1.25;0.82;;;17.60;71.80;;;;;;5030266;28;20091;-72
2021/07/15 01:22:50;;;;;;;1.30;0.95;;;17.60;71.70;;;;;;5046960;28;20037;-72
2021/07/15 01:25:41;;;;;;;1.98;0.80;;;17.50;71.80;;;;;;5029792;28;20033;-72
2021/07/15 01:28:30;;;;;;;3.72;1.00;;;17.50;72.20;;;;;;5032637;28;20033;-72
2021/07/15 01:31:01;;;;;;;2.90;0.90;;;17.50;72.30;;;;;;5031138;28;20025;-72
2021/07/15 01:33:32;;;;;;;1.07;0.70;;;17.50;72.40;;;;;;5029578;28;20074;-72
2021/07/15 01:36:09;;;;;;;2.83;0.90;;;17.40;72.90;;;;;;5030037;28;20267;-72
2021/07/15 01:38:47;;;;;;;1.52;1.00;;;17.40;73.40;;;;;;5029283;28;20053;-72
2021/07/15 01:41:15;;;;;;;2.83;1.00;;;17.30;73.90;;;;;;5031203;28;20036;-72
2021/07/15 01:43:52;;;;;;;1.38;0.85;;;17.30;73.70;;;;;;5047013;28;20045;-72
2021/07/15 01:46:17;;;;;;;1.67;0.90;;;17.40;74.70;;;;;;5029279;28;20029;-72
2021/07/15 01:48:44;;;;;;;2.75;0.93;;;17.40;74.50;;;;;;5029252;28;20044;-72
2021/07/15 01:51:09;;;;;;;1.75;0.90;;;17.40;74.70;;;;;;5030037;28;20030;-72
2021/07/15 01:53:35;;;;;;;1.30;0.88;;;17.40;74.30;;;;;;5029593;28;20056;-72
2021/07/15 01:56:01;;;;;;;1.63;0.80;;;17.40;74.30;;;;;;5029068;28;20101;-72
2021/07/15 01:58:28;;;;;;;2.83;0.90;;;17.40;74.10;;;;;;5029046;28;20277;-72
2021/07/15 02:00:54;;;;;;;2.53;0.90;;;17.40;74.10;;;;;;5029036;28;20093;-72
2021/07/15 02:03:19;;;;;;;2.03;0.80;;;17.40;74.10;;;;;;5029807;28;20327;-72
2021/07/15 02:05:45;;;;;;;1.40;0.82;;;17.40;74.10;;;;;;5029510;28;20033;-72
2021/07/15 02:08:11;;;;;;;1.58;0.60;;;17.30;74.50;;;;;;5029034;28;20048;-72
2021/07/15 02:10:36;;;;;;;0.98;0.80;;;17.30;74.50;;;;;;5029134;28;20071;-72
2021/07/15 02:13:02;;;;;;;3.95;1.00;;;17.30;74.90;;;;;;5028834;28;20029;-72
2021/07/15 02:15:28;;;;;;;2.60;0.90;;;17.10;75.60;;;;;;5028756;28;20092;-71
2021/07/15 02:17:54;;;;;;;1.20;1.05;;;17.20;75.90;;;;;;5029806;28;20366;-72
2021/07/15 02:20:20;;;;;;;3.08;0.95;;;17.10;75.80;;;;;;5046226;28;20077;-72
2021/07/15 02:22:46;;;;;;;1.83;1.00;;;17.10;76.20;;;;;;5028690;28;20263;-72
2021/07/15 02:25:12;;;;;;;1.23;0.93;;;17.20;75.80;;;;;;5028790;28;20390;-72
2021/07/15 02:27:39;;;;;;;2.35;0.80;;;17.20;75.90;;;;;;5028817;28;20335;-72
2021/07/15 02:30:07;;;;;;;2.53;0.90;;;17.30;75.80;;;;;;5029492;28;20029;-72
2021/07/15 02:32:33;;;;;;;2.13;0.77;;;17.30;75.70;;;;;;5029048;28;20339;-72
2021/07/15 02:35:05;;;;;;;1.15;0.82;;;17.30;76.00;;;;;;5028442;28;20033;-72
2021/07/15 02:37:33;;;;;;;1.17;0.90;;;17.20;75.90;;;;;;5028088;28;20045;-72
2021/07/15 02:39:58;;;;;;;1.27;0.88;;;17.20;75.90;;;;;;5028538;28;20371;-72
2021/07/15 02:42:24;;;;;;;0.95;0.80;;;17.20;75.70;;;;;;5046032;28;20034;-72
2021/07/15 02:44:50;;;;;;;0.77;0.63;;;17.20;75.50;;;;;;5028808;28;20021;-72
2021/07/15 02:47:15;;;;;;;1.35;0.80;;;17.20;75.00;;;;;;5028397;28;20067;-72
2021/07/15 02:49:41;;;;;;;1.23;0.70;;;17.10;75.10;;;;;;5045597;28;20030;-72
2021/07/15 02:52:08;;;;;;;1.00;0.80;;;17.10;75.30;;;;;;5045930;28;20030;-72
2021/07/15 02:54:34;;;;;;;1.45;0.80;;;17.10;75.30;;;;;;5027968;28;20229;-71
2021/07/15 02:57:10;;;;;;;0.98;0.70;;;16.90;75.70;;;;;;5028605;28;20022;-72
2021/07/15 02:59:46;;;;;;;2.08;0.85;;;16.90;75.80;;;;;;5045920;28;20037;-72
2021/07/15 03:02:22;;;;;;;4.63;0.80;;;16.80;76.10;;;;;;5028403;28;20056;-72
2021/07/15 03:05:05;;;;;;;1.45;0.77;;;16.80;76.00;;;;;;5045818;28;20064;-72
2021/07/15 03:07:36;;;;;;;3.17;1.10;;;16.80;76.50;;;;;;5045556;28;20063;-72
2021/07/15 03:10:05;;;;;;;;;;;16.70;76.60;;;;;;5028342;28;20033;-71
2021/07/15 03:12:35;;;;;;;1.42;0.80;;;16.50;76.80;;;;;;5045508;28;19908;-72
2021/07/15 03:15:01;;;;;;;1.00;0.60;;;16.70;76.70;;;;;;5028245;28;20038;-72
2021/07/15 03:17:35;;;;;;;1.20;0.90;;;16.80;76.10;;;;;;5045716;28;20076;-72
2021/07/15 03:20:07;;;;;;;2.65;1.08;;;16.80;76.20;;;;;;5028350;28;20053;-73
2021/07/15 03:22:33;;;;;;;1.40;0.80;;;16.90;76.00;;;;;;5045199;28;20029;-73
2021/07/15 03:25:00;;;;;;;2.28;0.80;;;17.00;76.00;;;;;;5027679;28;20412;-73
2021/07/15 03:27:26;;;;;;;1.63;0.90;;;16.90;76.20;;;;;;5027438;28;20025;-73
2021/07/15 03:29:53;;;;;;;0.95;0.80;;;17.10;76.00;;;;;;5027940;28;20030;-73
2021/07/15 03:32:18;;;;;;;1.00;0.80;;;17.00;76.00;;;;;;5043743;28;20136;-73
2021/07/15 03:34:44;;;;;;;6.45;1.02;;;17.00;75.80;;;;;;5044789;28;20029;-73
2021/07/15 03:37:09;;;;;;;1.55;0.90;;;16.90;76.10;;;;;;5026505;28;20034;-73
2021/07/15 03:39:35;;;;;;;1.10;0.85;;;16.90;76.40;;;;;;5044776;28;20040;-72
2021/07/15 03:42:00;;;;;;;2.15;0.80;;;16.90;76.30;;;;;;5028314;28;20077;-73
2021/07/15 03:44:26;;;;;;;1.10;0.70;;;16.90;76.30;;;;;;5027548;28;20037;-73
2021/07/15 03:46:51;;;;;;;1.40;1.00;;;17.00;76.70;;;;;;5044873;28;20216;-73
2021/07/15 03:49:18;;;;;;;2.45;0.82;;;17.10;76.70;;;;;;5027036;28;20127;-73
2021/07/15 03:51:44;;;;;;;2.30;0.70;;;17.10;76.00;;;;;;5044750;28;20041;-73
2021/07/15 03:54:10;;;;;;;1.65;1.00;;;17.30;75.90;;;;;;5043878;28;20034;-73
2021/07/15 03:56:37;;;;;;;1.60;0.80;;;17.20;75.90;;;;;;5027451;28;20030;-73
2021/07/15 03:59:03;;;;;;;1.90;0.80;;;17.10;76.20;;;;;;5027033;28;20056;-73
2021/07/15 04:01:32;;;;;;;1.52;0.70;;;17.20;75.90;;;;;;5026974;28;20089;-72
2021/07/15 04:03:58;;;;;;;1.17;0.70;;;17.10;75.20;;;;;;5026790;28;20076;-72
2021/07/15 04:06:23;;;;;;;2.05;0.75;;;17.10;75.60;;;;;;5026910;28;20033;-71
2021/07/15 04:08:49;;;;;;;1.30;0.73;;;17.00;76.00;;;;;;5027181;28;20038;-73
2021/07/15 04:11:15;;;;;;;1.58;0.73;;;16.90;76.30;;;;;;5027195;28;20116;-73
2021/07/15 04:13:41;;;;;;;1.25;0.70;;;16.90;76.50;;;;;;5026659;28;20037;-73
2021/07/15 04:16:40;;;;;;;2.45;0.73;;;17.00;76.70;;;;;;5026653;28;20037;-73
2021/07/15 04:19:05;;;;;;;3.28;0.80;;;17.10;76.80;;;;;;5021434;28;20037;-73
2021/07/15 04:21:31;;;;;;;2.63;0.80;;;17.10;76.70;;;;;;5026937;28;20044;-72
2021/07/15 04:23:56;;;;;;;1.42;0.80;;;17.10;76.80;;;;;;5027293;28;20037;-73
2021/07/15 04:26:22;;;;;;;3.70;0.90;;;17.10;76.90;;;;;;5044137;28;20374;-73
2021/07/15 04:28:48;;;;;;;1.00;0.70;;;17.00;77.00;;;;;;5026313;28;20053;-73
2021/07/15 04:31:42;;;;;;;4.47;1.00;;;17.00;77.00;;;;;;5026374;28;20088;-73
2021/07/15 04:34:08;;;;;;;1.40;0.90;;;17.10;76.90;;;;;;5026423;28;20089;-73
2021/07/15 04:36:33;;;;;;;3.05;0.90;;;17.10;77.10;;;;;;5043626;28;20074;-72
2021/07/15 04:38:59;;;;;;;1.98;0.90;;;17.00;77.40;;;;;;5026543;28;20340;-73
2021/07/15 04:41:25;;;;;;;1.88;0.80;;;17.00;77.30;;;;;;5044162;28;20221;-73
2021/07/15 04:43:51;;;;;;;3.50;1.52;;;17.20;76.90;;;;;;5026133;28;20030;-73
2021/07/15 04:46:17;;;;;;;3.70;0.90;;;17.20;76.90;;;;;;5026400;28;20029;-73
2021/07/15 04:48:43;;;;;;;2.60;0.90;;;17.30;76.90;;;;;;5043458;28;20044;-72
2021/07/15 04:51:13;;;;;;;2.85;1.05;;;17.20;77.10;;;;;;5043520;28;20053;-73
2021/07/15 04:53:38;;;;;;;1.00;0.70;;;17.30;77.10;;;;;;5027227;28;20033;-72
2021/07/15 04:56:04;;;;;;;1.25;1.00;;;17.30;77.10;;;;;;5026671;28;20452;-71
2021/07/15 04:58:30;;;;;;;2.17;1.05;;;17.30;76.50;;;;;;5042445;28;20033;-72
2021/07/15 05:00:55;;;;;;;1.75;0.95;;;17.30;76.40;;;;;;5025914;28;20325;-72
2021/07/15 05:03:32;;;;;;;3.67;0.90;;;17.30;76.20;;;;;;5043911;28;20029;-73
2021/07/15 05:05:58;;;;;;;3.67;0.95;;;17.20;76.60;;;;;;5043035;28;20034;-72
2021/07/15 05:08:24;;;;;;;1.92;0.90;;;17.20;76.90;;;;;;5043772;28;20104;-73
2021/07/15 05:10:49;;;;;;;2.05;1.30;;;17.20;76.80;;;;;;5026137;28;20217;-73
2021/07/15 05:13:15;;;;;;;1.77;1.05;;;17.20;76.40;;;;;;5025977;28;20056;-72
2021/07/15 05:15:40;;;;;;;2.38;1.00;;;17.20;76.50;;;;;;5026262;28;20037;-72
2021/07/15 05:18:06;;;;;;;4.72;1.27;;;17.20;76.90;;;;;;5026413;28;20025;-73
2021/07/15 05:20:31;;;;;;;5.10;1.30;;;17.20;76.90;;;;;;5043718;28;20113;-73
2021/07/15 05:22:57;;;;;;;4.32;1.30;;;17.30;76.70;;;;;;5043335;28;20084;-72
2021/07/15 05:25:22;;;;;;;3.55;0.98;;;17.30;76.20;;;;;;5043633;28;20029;-73
2021/07/15 05:27:48;;;;;;;3.58;1.00;;;17.40;76.50;;;;;;5043162;28;20031;-71
2021/07/15 05:30:14;;;;;;;2.42;1.10;;;17.40;76.50;;;;;;5043944;28;20029;-72
2021/07/15 05:32:40;;;;;;;1.42;0.98;;;17.50;76.60;;;;;;5043590;28;20041;-72
2021/07/15 05:35:06;;;;;;;2.55;1.00;;;17.40;75.90;;;;;;5043280;28;20097;-72
2021/07/15 05:37:31;;;;;;;2.50;1.20;;;17.40;76.00;;;;;;5042810;28;20046;-72
2021/07/15 05:39:57;;;;;;;1.42;0.95;;;17.50;76.10;;;;;;5025367;28;20038;-72
2021/07/15 05:42:22;;;;;;;4.60;1.05;;;17.50;75.90;;;;;;5043483;28;20085;-72
2021/07/15 05:44:48;;;;;;;1.95;1.10;;;17.60;75.80;;;;;;5043399;28;20340;-73
2021/07/15 05:47:13;;;;;;;5.20;1.00;;;17.70;75.50;;;;;;5043197;28;20041;-72
2021/07/15 05:49:39;;;;;;;1.45;1.00;;;17.80;75.60;;;;;;5042979;28;20037;-73
2021/07/15 05:52:05;;;;;;;2.15;1.10;;;17.80;75.50;;;;;;5025595;28;20029;-72
2021/07/15 05:54:31;;;;;;;3.42;1.00;;;17.90;75.10;;;;;;5025267;28;20037;-72
2021/07/15 05:56:56;;;;;;;1.85;0.85;;;17.90;75.20;;;;;;5026241;28;20033;-72
2021/07/15 05:59:22;;;;;;;2.20;1.30;;;17.90;75.50;;;;;;5043229;28;20056;-73
2021/07/15 06:01:47;;;;;;;2.95;1.08;;;17.90;75.50;;;;;;5011335;28;20026;-72
2021/07/15 06:04:13;;;;;;;2.50;1.10;;;18.00;75.60;;;;;;5028843;28;20354;-72
2021/07/15 06:06:38;;;;;;;2.65;1.10;;;17.90;74.60;;;;;;5046489;28;20093;-72
2021/07/15 06:09:04;;;;;;;4.05;1.45;;;17.90;75.20;;;;;;5029664;28;20060;-72
2021/07/15 06:11:29;;;;;;;1.88;1.00;;;17.90;75.20;;;;;;5029050;28;20340;-73
2021/07/15 06:13:55;;;;;;;2.03;1.00;;;18.00;75.20;;;;;;5046247;28;20068;-73
2021/07/15 06:16:20;;;;;;;3.50;1.13;;;17.90;74.90;;;;;;5046372;28;20088;-73
2021/07/15 06:18:46;;;;;;;4.72;1.25;;;18.00;74.80;;;;;;5029155;28;20045;-73
2021/07/15 06:21:12;;;;;;;4.72;1.23;;;18.10;74.80;;;;;;5047294;28;20033;-73
2021/07/15 06:23:37;;;;;;;2.83;1.20;;;18.20;74.80;;;;;;5046682;28;20033;-73
2021/07/15 06:26:04;;;;;;;4.55;1.08;;;18.30;74.90;;;;;;5046034;28;20092;-73
2021/07/15 06:28:30;;;;;;;1.20;1.00;;;18.30;74.80;;;;;;5028935;28;20034;-73
2021/07/15 06:30:55;;;;;;;2.20;1.02;;;18.30;74.50;;;;;;5045965;28;20026;-73
2021/07/15 06:33:21;;;;;;;4.95;1.40;;;18.40;74.90;;;;;;5046437;28;20025;-73
2021/07/15 06:35:50;;;;;;;2.30;0.80;;;18.40;74.80;;;;;;5046528;28;20034;-73
2021/07/15 06:38:16;;;;;;;1.17;0.70;;;18.50;74.80;;;;;;5028691;28;20042;-73
2021/07/15 06:40:43;;;;;;;2.35;0.85;;;18.50;74.60;;;;;;5045764;28;20044;-73
2021/07/15 06:43:08;;;;;;;2.45;0.85;;;18.60;74.20;;;;;;5046022;28;20029;-72
2021/07/15 06:45:34;;;;;;;1.67;0.80;;;18.60;74.40;;;;;;5046298;28;20256;-73
2021/07/15 06:48:00;;;;;;;1.98;1.00;;;18.60;73.80;;;;;;5046760;28;20056;-73
2021/07/15 06:50:25;;;;;;;1.33;0.70;;;18.60;72.90;;;;;;5046007;28;20049;-72
2021/07/15 06:52:51;;;;;;;2.00;0.85;;;18.70;72.30;;;;;;5028469;28;20030;-72
2021/07/15 06:55:16;;;;;;;0.82;0.60;;;18.80;72.20;;;;;;5045932;28;20087;-72
2021/07/15 06:57:42;;;;;;;1.23;0.63;;;18.70;72.70;;;;;;5045374;28;20037;-72
2021/07/15 07:00:12;;;;;;;1.70;0.80;;;18.80;71.90;;;;;;5046247;28;20371;-72
2021/07/15 07:02:42;;;;;;;0.77;0.55;;;18.80;71.10;;;;;;5028361;28;20041;-73
2021/07/15 07:05:08;;;;;;;0.82;0.60;;;18.80;71.10;;;;;;5028278;28;20045;-72
2021/07/15 07:07:34;;;;;;;1.52;0.73;;;18.80;70.70;;;;;;5045302;28;20030;-72
2021/07/15 07:09:59;;;;;;;2.35;0.70;;;18.80;71.00;;;;;;5027776;28;20087;-72
2021/07/15 07:12:25;;;;;;;0.88;0.70;;;18.90;71.70;;;;;;5044484;28;20055;-72
2021/07/15 07:14:50;;;;;;;3.22;0.90;;;19.10;71.00;;;;;;5045993;28;20077;-73
2021/07/15 07:17:16;;;;;;;2.45;0.73;;;19.10;71.40;;;;;;5045517;28;20140;-73
2021/07/15 07:19:41;;;;;;;1.92;0.88;;;19.10;70.80;;;;;;5011238;28;20041;-73
2021/07/15 07:22:07;;;;;;;1.60;0.88;;;19.20;70.50;;;;;;5045374;28;20033;-72
2021/07/15 07:24:32;;;;;;;1.42;0.73;;;19.30;70.40;;;;;;5045516;28;20088;-72
2021/07/15 07:26:58;;;;;;;0.70;0.57;;;19.40;69.60;;;;;;5045798;28;20049;-73
2021/07/15 07:29:23;;;;;;;0.77;0.70;;;19.50;69.50;;;;;;5027714;28;20030;-73
2021/07/15 07:31:49;;;;;;;2.33;0.60;;;19.50;68.90;;;;;;5045139;28;20040;-73
2021/07/15 07:34:14;;;;;;;1.15;0.60;;;19.60;69.40;;;;;;5045123;28;20021;-72
2021/07/15 07:36:40;;;;;;;0.90;0.70;;;19.70;69.50;;;;;;5044977;28;20336;-72
2021/07/15 07:39:06;;;;;;;1.23;0.70;;;19.70;68.10;;;;;;5045089;28;20097;-73
2021/07/15 07:41:32;;;;;;;1.60;0.70;;;19.70;67.80;;;;;;5045099;28;20049;-73
2021/07/15 07:43:58;;;;;;;2.88;0.60;;;19.80;67.80;;;;;;5044901;28;20166;-72
2021/07/15 07:46:23;;;;;;;0.80;0.60;;;19.70;66.80;;;;;;5044874;28;20037;-72
2021/07/15 07:48:49;;;;;;;1.23;0.65;;;19.80;67.10;;;;;;5044542;28;20091;-72
2021/07/15 07:51:14;;;;;;;0.90;0.65;;;19.80;67.60;;;;;;5045315;28;20038;-72
2021/07/15 07:53:40;;;;;;;1.52;0.70;;;19.80;66.50;;;;;;5043804;28;20029;-73
2021/07/15 07:56:06;;;;;;;1.80;0.77;;;19.80;68.20;;;;;;5044745;28;20274;-73
2021/07/15 07:58:31;;;;;;;1.20;0.70;;;19.90;68.10;;;;;;5027000;28;20037;-72
2021/07/15 08:00:57;;;;;;;1.67;0.70;;;19.80;67.20;;;;;;5044406;28;20033;-72
2021/07/15 08:03:22;;;;;;;1.65;0.77;;;19.90;67.60;;;;;;5045351;28;20244;-73
2021/07/15 08:05:48;;;;;;;2.83;0.70;;;20.00;68.40;;;;;;5044263;28;20056;-72
2021/07/15 08:08:18;;;;;;;1.63;0.80;;;20.10;68.90;;;;;;5044547;28;20332;-72
2021/07/15 08:10:44;;;;;;;1.03;0.80;;;20.00;68.80;;;;;;5044467;28;20038;-72
2021/07/15 08:13:09;;;;;;;1.48;0.75;;;20.00;69.10;;;;;;5044072;28;20052;-72
2021/07/15 08:15:35;;;;;;;1.45;0.75;;;19.90;69.50;;;;;;5044042;28;20029;-72
2021/07/15 08:18:00;;;;;;;0.93;0.70;;;20.00;69.20;;;;;;5027457;28;20040;-72
2021/07/15 08:20:26;;;;;;;1.00;0.70;;;20.10;69.20;;;;;;5026789;28;20037;-73
2021/07/15 08:22:52;;;;;;;1.60;0.70;;;20.20;69.80;;;;;;5026512;28;20033;-72
2021/07/15 08:25:19;;;;;;;1.45;0.90;;;20.20;69.60;;;;;;5043860;28;20037;-72
2021/07/15 08:27:45;;;;;;;0.90;0.77;;;20.30;69.40;;;;;;5026414;28;20029;-72
2021/07/15 08:30:12;;;;;;;1.50;0.73;;;20.30;68.80;;;;;;5010361;28;20047;-73
2021/07/15 08:32:38;;;;;;;0.80;0.60;;;20.30;68.20;;;;;;5044293;28;20035;-73
2021/07/15 08:35:04;;;;;;;1.02;0.70;;;20.30;66.60;;;;;;5043655;28;20037;-73
2021/07/15 08:37:29;;;;;;;1.42;0.70;;;20.30;67.00;;;;;;5043421;28;20057;-72
2021/07/15 08:39:55;;;;;;;1.10;0.75;;;20.30;67.00;;;;;;5026239;28;20091;-72
2021/07/15 08:42:21;;;;;;;0.98;0.70;;;20.40;67.80;;;;;;5044103;28;20241;-73
2021/07/15 08:44:46;;;;;;;2.65;0.70;;;20.40;67.90;;;;;;5026113;28;20048;-73
2021/07/15 08:47:16;;;;;;;1.02;0.77;;;20.30;68.30;;;;;;5026490;28;20029;-73
2021/07/15 08:49:42;;;;;;;0.82;0.63;;;20.30;69.40;;;;;;5026210;28;20088;-72
2021/07/15 08:52:07;;;;;;;1.15;0.90;;;20.30;68.40;;;;;;5026516;28;20328;-72
2021/07/15 08:54:59;;;;;;;1.60;0.80;;;20.20;69.30;;;;;;5043451;28;20311;-72
2021/07/15 08:57:24;;;;;;;;;;;20.10;70.20;;;;;;5043713;28;20082;-72
2021/07/15 08:59:50;;;;;;;2.13;0.98;;;20.20;70.60;;;;;;5043909;28;19905;-72
2021/07/15 09:02:17;;;;;;;1.33;1.05;;;20.10;70.90;;;;;;5026380;28;20034;-73
2021/07/15 09:04:43;;;;;;;1.30;0.93;;;20.10;71.30;;;;;;5043564;28;20071;-72
2021/07/15 09:07:09;;;;;;;3.15;1.10;;;20.10;71.60;;;;;;5043549;28;20041;-73
2021/07/15 09:09:35;;;;;;;1.35;0.80;;;20.10;70.90;;;;;;5025885;28;20033;-72
2021/07/15 09:12:00;;;;;;;1.65;1.00;;;20.00;69.80;;;;;;5043835;28;20029;-72
2021/07/15 09:14:25;;;;;;;3.40;1.00;;;20.00;69.50;;;;;;5042264;28;20053;-72
2021/07/15 09:16:56;;;;;;;1.13;0.80;;;20.00;69.10;;;;;;5043149;28;20040;-72
2021/07/15 09:19:25;;;;;;;1.25;0.90;;;20.00;69.10;;;;;;5043080;28;20038;-72
2021/07/15 09:21:50;;;;;;;1.15;0.80;;;20.00;69.20;;;;;;5025760;28;20099;-72
2021/07/15 09:24:27;;;;;;;1.73;1.00;;;19.90;69.10;;;;;;5044001;28;20037;-73
2021/07/15 09:26:53;;;;;;;1.52;0.70;;;19.90;69.70;;;;;;5026853;28;20420;-73
2021/07/15 09:29:19;;;;;;;1.63;0.70;;;19.80;69.50;;;;;;5026112;28;20034;-73
2021/07/15 09:31:57;;;;;;;2.47;1.10;;;19.80;69.00;;;;;;5025963;28;20044;-72
2021/07/15 09:34:26;;;;;;;3.42;0.90;;;19.80;69.10;;;;;;5043561;28;20030;-73
2021/07/15 09:36:53;;;;;;;1.20;0.80;;;19.70;70.10;;;;;;5028837;28;20229;-72
2021/07/15 09:39:26;;;;;;;0.95;0.57;;;19.70;70.00;;;;;;5010030;28;20084;-74
2021/07/15 09:42:19;;;;;;;1.75;0.70;;;19.70;69.60;;;;;;5027934;28;20105;-75
2021/07/15 09:44:51;;;;;;;0.93;0.60;;;19.60;70.40;;;;;;5026442;28;20053;-72
2021/07/15 09:47:34;;;;;;;1.17;0.70;;;19.50;70.80;;;;;;5042772;28;20060;-72
2021/07/15 09:50:26;;;;;;;0.88;0.68;;;19.50;71.00;;;;;;5027361;28;20034;-72
2021/07/15 09:52:51;;;;;;;1.02;0.60;;;19.50;70.70;;;;;;5021486;28;20037;-71
2021/07/15 09:55:21;;;;;;;0.80;0.50;;;19.40;71.20;;;;;;5025811;28;20217;-71
2021/07/15 09:57:51;;;;;;;0.65;0.52;;;19.30;72.00;;;;;;5025764;28;20037;-73
2021/07/15 10:00:17;;;;;;;0.82;0.50;;;19.30;71.50;;;;;;5026502;28;20252;-73
2021/07/15 10:02:42;;;;;;;3.05;0.60;;;19.30;71.10;;;;;;5042497;28;20030;-73
2021/07/15 10:05:11;;;;;;;1.17;0.70;;;19.30;70.80;;;;;;5025616;28;20033;-73
2021/07/15 10:07:37;;;;;;;0.82;0.68;;;19.20;71.00;;;;;;5026016;28;20045;-73
2021/07/15 10:10:16;;;;;;;3.25;0.80;;;19.20;70.80;;;;;;5025555;28;20030;-72
2021/07/15 10:12:42;;;;;;;4.20;0.75;;;19.20;70.40;;;;;;5042293;28;20037;-73
2021/07/15 10:15:11;;;;;;;3.70;0.60;;;19.10;70.90;;;;;;5042445;28;20268;-73
2021/07/15 10:17:39;;;;;;;1.02;0.80;;;19.10;71.50;;;;;;5025921;28;20065;-73
2021/07/15 10:20:12;;;;;;;3.65;0.73;;;19.00;71.10;;;;;;5025717;28;20080;-73
2021/07/15 10:22:37;;;;;;;2.53;0.70;;;18.90;71.20;;;;;;5009299;28;20097;-73
2021/07/15 10:25:03;;;;;;;1.02;0.70;;;19.00;71.40;;;;;;5026387;28;20034;-73
2021/07/15 10:27:29;;;;;;;1.20;0.60;;;19.00;71.50;;;;;;5026467;28;20029;-73
2021/07/15 10:29:55;;;;;;;1.00;0.50;;;19.00;71.10;;;;;;5025969;28;20032;-74
2021/07/15 10:32:21;;;;;;;0.60;0.50;;;19.00;71.00;;;;;;5025623;28;20261;-73
2021/07/15 10:34:52;;;;;;;0.90;0.50;;;19.00;71.00;;;;;;5025136;28;20034;-73
2021/07/15 10:37:17;;;;;;;0.80;0.50;;;18.90;71.10;;;;;;5027734;28;20037;-74
2021/07/15 10:39:43;;;;;;;0.65;0.45;;;18.90;71.40;;;;;;5016440;28;21592;-74
2021/07/15 10:42:08;;;;;;;1.35;0.50;;;19.00;71.70;;;;;;4999339;28;20044;-72
2021/07/15 10:44:34;;;;;;;2.20;0.50;;;19.10;71.20;;;;;;5028834;28;20135;-74
2021/07/15 10:47:00;;;;;;;2.03;0.60;;;19.00;70.50;;;;;;5028598;28;20042;-76
2021/07/15 10:49:25;;;;;;;0.85;0.50;;;19.00;71.10;;;;;;5028549;28;20029;-75
2021/07/15 10:51:52;;;;;;;0.90;0.60;;;19.00;72.30;;;;;;5028226;28;20025;-75
2021/07/15 10:54:17;;;;;;;1.75;0.50;;;19.10;72.50;;;;;;5028979;28;20217;-75
2021/07/15 10:56:51;;;;;;;1.92;0.60;;;19.20;71.90;;;;;;5028609;28;20038;-74
2021/07/15 10:59:27;;;;;;;1.52;0.63;;;19.20;72.50;;;;;;5028212;28;20042;-74
2021/07/15 11:01:54;;;;;;;1.65;0.70;;;19.20;72.30;;;;;;5028521;28;20030;-73
2021/07/15 11:04:21;;;;;;;1.83;0.80;;;19.20;72.30;;;;;;5045599;28;20033;-73
2021/07/15 11:06:51;;;;;;;1.58;0.60;;;19.20;71.90;;;;;;5028139;28;20036;-73
2021/07/15 11:09:23;;;;;;;2.38;0.90;;;19.30;71.60;;;;;;5045877;28;20029;-73
2021/07/15 11:11:48;;;;;;;1.90;0.60;;;19.30;71.30;;;;;;5045758;28;20071;-73
2021/07/15 11:14:34;;;;;;;2.30;0.50;;;19.30;71.20;;;;;;5027778;28;20078;-73
2021/07/15 11:16:59;;;;;;;1.05;0.52;;;19.40;70.90;;;;;;5045541;28;20033;-74
2021/07/15 11:20:02;;;;;;;2.55;1.10;;;19.40;71.20;;;;;;5027707;28;20359;-73
2021/07/15 11:22:48;;;;;;;0.75;0.60;;;19.50;71.00;;;;;;5045336;28;20031;-73
2021/07/15 11:25:26;;;;;;;0.50;0.30;;;19.60;70.40;;;;;;5027661;28;20030;-75
2021/07/15 11:27:53;;;;;;;0.80;0.50;;;19.60;70.50;;;;;;5044977;28;20399;-74
2021/07/15 11:30:34;;;;;;;3.63;0.43;;;19.70;69.50;;;;;;5027941;28;20033;-74
2021/07/15 11:33:18;;;;;;;0.43;0.40;;;19.60;69.70;;;;;;5045736;28;20041;-74
2021/07/15 11:35:53;;;;;;;0.88;0.30;;;19.70;70.00;;;;;;5045273;28;20037;-74
2021/07/15 11:38:26;;;;;;;0.55;0.43;;;19.60;69.40;;;;;;5044507;28;20349;-74
2021/07/15 11:40:51;;;;;;;0.57;0.38;;;19.70;70.20;;;;;;5027393;28;20051;-74
2021/07/15 11:43:22;;;;;;;0.63;0.40;;;19.80;70.40;;;;;;5044860;28;20094;-74
2021/07/15 11:46:11;;;;;;;0.73;0.40;;;19.80;70.40;;;;;;5027380;28;20030;-74
2021/07/15 11:49:18;;;;;;;0.52;0.40;;;19.80;69.60;;;;;;5027107;28;20355;-74
2021/07/15 11:52:01;;;;;;;0.60;0.30;;;19.80;68.70;;;;;;5044567;28;20052;-74
2021/07/15 11:54:43;;;;;;;1.30;0.40;;;19.80;69.30;;;;;;5044699;28;20388;-74
2021/07/15 11:57:11;;;;;;;2.70;0.50;;;19.80;68.70;;;;;;5028209;28;20029;-74
2021/07/15 11:59:44;;;;;;;1.42;0.50;;;19.80;68.70;;;;;;5044056;28;20249;-74
2021/07/15 12:02:22;;;;;;;1.13;0.60;;;19.80;69.40;;;;;;5044277;28;20360;-69
2021/07/15 12:05:10;;;;;;;0.32;0.30;;;19.80;68.00;;;;;;5044192;28;20029;-69
2021/07/15 12:07:47;;;;;;;2.85;0.50;;;19.80;68.30;;;;;;5044225;28;20327;-69
2021/07/15 12:10:35;;;;;;;1.17;0.50;;;19.80;67.70;;;;;;5026818;28;20029;-69
2021/07/15 12:13:02;;;;;;;2.17;0.57;;;19.80;68.50;;;;;;5043336;28;20261;-69
2021/07/15 12:15:28;;;;;;;1.55;0.50;;;19.80;67.70;;;;;;5044100;28;20029;-69
2021/07/15 12:17:56;;;;;;;2.50;0.40;;;19.80;68.40;;;;;;5026995;28;20029;-69
2021/07/15 12:20:23;;;;;;;0.45;0.40;;;19.80;68.10;;;;;;5026420;28;20447;-69
2021/07/15 12:22:54;;;;;;;0.50;0.40;;;19.80;67.80;;;;;;5044043;28;20303;-68
2021/07/15 12:25:21;;;;;;;;;;;19.80;68.40;;;;;;5044334;28;20026;-68
2021/07/15 12:27:49;;;;;;;0.40;0.30;;;19.80;67.70;;;;;;5044124;28;20088;-68
2021/07/15 12:30:15;;;;;;;1.33;0.50;;;19.80;68.20;;;;;;5026768;28;20022;-69
2021/07/15 12:32:55;;;;;;;0.63;0.32;;;19.80;67.70;;;;;;5044288;28;20039;-69
2021/07/15 12:35:21;;;;;;;0.88;0.30;;;19.80;67.80;;;;;;5042731;28;20037;-69
2021/07/15 12:37:46;;;;;;;1.23;0.40;;;19.80;67.70;;;;;;5043625;28;20214;-68
2021/07/15 12:40:12;;;;;;;1.38;0.30;;;19.80;67.20;;;;;;5026345;28;20061;-68
2021/07/15 12:42:38;;;;;;;1.15;0.40;;;19.80;67.20;;;;;;5043985;28;20038;-69
2021/07/15 12:45:17;;;;;;;1.80;0.60;;;19.90;67.40;;;;;;5044197;28;20040;-69
2021/07/15 12:48:06;;;;;;;0.80;0.40;;;20.10;67.30;;;;;;5042994;28;20097;-69
2021/07/15 12:50:31;;;;;;;3.03;0.50;;;20.00;67.20;;;;;;5044160;28;20041;-69
2021/07/15 12:53:14;;;;;;;0.75;0.30;;;20.00;66.60;;;;;;5043972;28;20044;-69
2021/07/15 12:55:41;;;;;;;0.93;0.40;;;20.10;66.70;;;;;;5044007;28;20143;-68